sensor_id;sensor_type;location;lat;lon;timestamp;P1;durP1;ratioP1;P2;durP2;ratioP2
67979;SDS011;54760;47.490;19.030;2024-01-30T00:00:54;18.62;;;9.88;;
67979;SDS011;54760;47.490;19.030;2024-01-30T00:03:19;17.83;;;8.95;;
67979;SDS011;54760;47.490;19.030;2024-01-30T00:05:45;16.10;;;9.52;;
67979;SDS011;54760;47.490;19.030;2024-01-30T00:08:10;16.65;;;9.82;;
67979;SDS011;54760;47.490;19.030;2024-01-30T00:10:35;18.00;;;9.68;;
67979;SDS011;54760;47.490;19.030;2024-01-30T00:13:01;18.90;;;9.77;;
67979;SDS011;54760;47.490;19.030;2024-01-30T00:15:27;15.57;;;9.65;;
67979;SDS011;54760;47.490;19.030;2024-01-30T00:17:53;14.80;;;9.48;;
67979;SDS011;54760;47.490;19.030;2024-01-30T00:20:18;18.42;;;10.35;;
67979;SDS011;54760;47.490;19.030;2024-01-30T00:22:44;18.83;;;9.98;;
67979;SDS011;54760;47.490;19.030;2024-01-30T00:25:09;16.75;;;9.50;;
67979;SDS011;54760;47.490;19.030;2024-01-30T00:27:35;17.40;;;10.20;;
67979;SDS011;54760;47.490;19.030;2024-01-30T00:30:00;16.15;;;9.00;;
67979;SDS011;54760;47.490;19.030;2024-01-30T00:32:25;17.35;;;10.20;;
67979;SDS011;54760;47.490;19.030;2024-01-30T00:34:51;19.70;;;9.75;;
67979;SDS011;54760;47.490;19.030;2024-01-30T00:37:16;17.70;;;10.18;;
67979;SDS011;54760;47.490;19.030;2024-01-30T00:39:41;16.05;;;9.75;;
67979;SDS011;54760;47.490;19.030;2024-01-30T00:42:07;16.65;;;9.43;;
67979;SDS011;54760;47.490;19.030;2024-01-30T00:44:34;20.42;;;9.93;;
67979;SDS011;54760;47.490;19.030;2024-01-30T00:47:02;14.27;;;8.82;;
67979;SDS011;54760;47.490;19.030;2024-01-30T00:49:28;16.75;;;9.60;;
67979;SDS011;54760;47.490;19.030;2024-01-30T00:51:53;16.35;;;9.60;;
67979;SDS011;54760;47.490;19.030;2024-01-30T00:54:19;17.77;;;9.98;;
67979;SDS011;54760;47.490;19.030;2024-01-30T00:56:44;16.58;;;9.02;;
67979;SDS011;54760;47.490;19.030;2024-01-30T00:59:10;19.20;;;9.90;;
67979;SDS011;54760;47.490;19.030;2024-01-30T01:01:36;18.52;;;9.82;;
67979;SDS011;54760;47.490;19.030;2024-01-30T01:04:01;16.33;;;9.68;;
67979;SDS011;54760;47.490;19.030;2024-01-30T01:06:27;17.80;;;10.00;;
67979;SDS011;54760;47.490;19.030;2024-01-30T01:08:52;19.15;;;9.90;;
67979;SDS011;54760;47.490;19.030;2024-01-30T01:11:18;15.68;;;9.38;;
67979;SDS011;54760;47.490;19.030;2024-01-30T01:13:43;19.50;;;9.40;;
67979;SDS011;54760;47.490;19.030;2024-01-30T01:16:09;17.75;;;9.82;;
67979;SDS011;54760;47.490;19.030;2024-01-30T01:18:34;17.52;;;9.95;;
67979;SDS011;54760;47.490;19.030;2024-01-30T01:20:59;17.02;;;9.13;;
67979;SDS011;54760;47.490;19.030;2024-01-30T01:23:25;18.05;;;9.82;;
67979;SDS011;54760;47.490;19.030;2024-01-30T01:25:51;18.62;;;10.88;;
67979;SDS011;54760;47.490;19.030;2024-01-30T01:28:17;19.40;;;10.35;;
67979;SDS011;54760;47.490;19.030;2024-01-30T01:30:42;17.05;;;9.77;;
67979;SDS011;54760;47.490;19.030;2024-01-30T01:33:07;15.70;;;10.30;;
67979;SDS011;54760;47.490;19.030;2024-01-30T01:35:34;16.10;;;9.52;;
67979;SDS011;54760;47.490;19.030;2024-01-30T01:38:00;17.05;;;10.00;;
67979;SDS011;54760;47.490;19.030;2024-01-30T01:40:26;15.90;;;8.98;;
67979;SDS011;54760;47.490;19.030;2024-01-30T01:42:53;18.77;;;10.48;;
67979;SDS011;54760;47.490;19.030;2024-01-30T01:45:19;19.85;;;9.70;;
67979;SDS011;54760;47.490;19.030;2024-01-30T01:47:46;17.92;;;10.00;;
67979;SDS011;54760;47.490;19.030;2024-01-30T01:50:16;17.50;;;9.93;;
67979;SDS011;54760;47.490;19.030;2024-01-30T01:52:48;17.83;;;10.10;;
67979;SDS011;54760;47.490;19.030;2024-01-30T01:55:15;18.60;;;10.10;;
67979;SDS011;54760;47.490;19.030;2024-01-30T01:57:43;15.85;;;9.48;;
67979;SDS011;54760;47.490;19.030;2024-01-30T02:00:09;17.45;;;9.50;;
67979;SDS011;54760;47.490;19.030;2024-01-30T02:02:35;16.65;;;9.38;;
67979;SDS011;54760;47.490;19.030;2024-01-30T02:05:02;15.75;;;10.20;;
67979;SDS011;54760;47.490;19.030;2024-01-30T02:07:28;17.48;;;10.80;;
67979;SDS011;54760;47.490;19.030;2024-01-30T02:09:53;16.92;;;9.13;;
67979;SDS011;54760;47.490;19.030;2024-01-30T02:12:20;16.42;;;9.48;;
67979;SDS011;54760;47.490;19.030;2024-01-30T02:14:46;17.75;;;9.65;;
67979;SDS011;54760;47.490;19.030;2024-01-30T02:17:15;15.55;;;9.52;;
67979;SDS011;54760;47.490;19.030;2024-01-30T02:19:41;14.85;;;8.73;;
67979;SDS011;54760;47.490;19.030;2024-01-30T02:22:06;16.10;;;9.40;;
67979;SDS011;54760;47.490;19.030;2024-01-30T02:24:32;16.05;;;9.60;;
67979;SDS011;54760;47.490;19.030;2024-01-30T02:26:58;18.55;;;10.10;;
67979;SDS011;54760;47.490;19.030;2024-01-30T02:29:23;19.35;;;9.68;;
67979;SDS011;54760;47.490;19.030;2024-01-30T02:31:49;15.35;;;9.48;;
67979;SDS011;54760;47.490;19.030;2024-01-30T02:34:15;19.42;;;10.07;;
67979;SDS011;54760;47.490;19.030;2024-01-30T02:36:43;17.73;;;10.05;;
67979;SDS011;54760;47.490;19.030;2024-01-30T02:39:09;20.15;;;10.15;;
67979;SDS011;54760;47.490;19.030;2024-01-30T02:41:34;17.27;;;9.13;;
67979;SDS011;54760;47.490;19.030;2024-01-30T02:44:00;15.30;;;9.35;;
67979;SDS011;54760;47.490;19.030;2024-01-30T02:46:26;18.23;;;9.05;;
67979;SDS011;54760;47.490;19.030;2024-01-30T02:48:52;16.62;;;8.82;;
67979;SDS011;54760;47.490;19.030;2024-01-30T02:51:17;15.48;;;8.93;;
67979;SDS011;54760;47.490;19.030;2024-01-30T02:53:42;15.95;;;9.30;;
67979;SDS011;54760;47.490;19.030;2024-01-30T02:56:08;14.80;;;9.15;;
67979;SDS011;54760;47.490;19.030;2024-01-30T02:58:35;16.30;;;9.25;;
67979;SDS011;54760;47.490;19.030;2024-01-30T03:01:01;16.17;;;9.32;;
67979;SDS011;54760;47.490;19.030;2024-01-30T03:03:27;18.27;;;9.55;;
67979;SDS011;54760;47.490;19.030;2024-01-30T03:05:52;16.80;;;9.50;;
67979;SDS011;54760;47.490;19.030;2024-01-30T03:08:18;17.73;;;8.75;;
67979;SDS011;54760;47.490;19.030;2024-01-30T03:10:43;14.38;;;9.00;;
67979;SDS011;54760;47.490;19.030;2024-01-30T03:13:08;15.18;;;9.02;;
67979;SDS011;54760;47.490;19.030;2024-01-30T03:15:34;14.77;;;9.13;;
67979;SDS011;54760;47.490;19.030;2024-01-30T03:17:59;14.77;;;9.20;;
67979;SDS011;54760;47.490;19.030;2024-01-30T03:20:25;15.00;;;8.65;;
67979;SDS011;54760;47.490;19.030;2024-01-30T03:22:50;15.45;;;9.05;;
67979;SDS011;54760;47.490;19.030;2024-01-30T03:25:15;14.48;;;9.23;;
67979;SDS011;54760;47.490;19.030;2024-01-30T03:27:41;17.15;;;8.93;;
67979;SDS011;54760;47.490;19.030;2024-01-30T03:30:06;17.10;;;9.50;;
67979;SDS011;54760;47.490;19.030;2024-01-30T03:32:32;13.70;;;8.73;;
67979;SDS011;54760;47.490;19.030;2024-01-30T03:34:57;14.87;;;8.27;;
67979;SDS011;54760;47.490;19.030;2024-01-30T03:37:24;17.60;;;8.68;;
67979;SDS011;54760;47.490;19.030;2024-01-30T03:39:49;14.43;;;8.77;;
67979;SDS011;54760;47.490;19.030;2024-01-30T03:42:15;16.65;;;9.45;;
67979;SDS011;54760;47.490;19.030;2024-01-30T03:44:40;16.02;;;8.60;;
67979;SDS011;54760;47.490;19.030;2024-01-30T03:47:06;15.70;;;8.52;;
67979;SDS011;54760;47.490;19.030;2024-01-30T03:49:31;18.45;;;8.68;;
67979;SDS011;54760;47.490;19.030;2024-01-30T03:51:56;16.80;;;9.02;;
67979;SDS011;54760;47.490;19.030;2024-01-30T03:54:22;15.48;;;9.27;;
67979;SDS011;54760;47.490;19.030;2024-01-30T03:56:47;15.20;;;9.13;;
67979;SDS011;54760;47.490;19.030;2024-01-30T03:59:13;15.02;;;8.73;;
67979;SDS011;54760;47.490;19.030;2024-01-30T04:01:38;15.35;;;8.93;;
67979;SDS011;54760;47.490;19.030;2024-01-30T04:04:03;17.00;;;9.30;;
67979;SDS011;54760;47.490;19.030;2024-01-30T04:06:29;15.02;;;8.90;;
67979;SDS011;54760;47.490;19.030;2024-01-30T04:08:54;15.68;;;9.05;;
67979;SDS011;54760;47.490;19.030;2024-01-30T04:11:19;15.50;;;8.88;;
67979;SDS011;54760;47.490;19.030;2024-01-30T04:13:45;18.35;;;8.82;;
67979;SDS011;54760;47.490;19.030;2024-01-30T04:16:19;16.92;;;9.07;;
67979;SDS011;54760;47.490;19.030;2024-01-30T04:18:47;15.35;;;9.05;;
67979;SDS011;54760;47.490;19.030;2024-01-30T04:21:12;17.05;;;9.05;;
67979;SDS011;54760;47.490;19.030;2024-01-30T04:23:37;17.50;;;9.00;;
67979;SDS011;54760;47.490;19.030;2024-01-30T04:26:04;15.57;;;8.63;;
67979;SDS011;54760;47.490;19.030;2024-01-30T04:28:29;16.52;;;9.35;;
67979;SDS011;54760;47.490;19.030;2024-01-30T04:30:55;17.05;;;9.30;;
67979;SDS011;54760;47.490;19.030;2024-01-30T04:33:20;16.92;;;8.38;;
67979;SDS011;54760;47.490;19.030;2024-01-30T04:35:45;16.55;;;8.45;;
67979;SDS011;54760;47.490;19.030;2024-01-30T04:38:11;16.37;;;9.18;;
67979;SDS011;54760;47.490;19.030;2024-01-30T04:40:36;16.25;;;9.48;;
67979;SDS011;54760;47.490;19.030;2024-01-30T04:43:01;15.15;;;8.55;;
67979;SDS011;54760;47.490;19.030;2024-01-30T04:45:27;15.60;;;9.13;;
67979;SDS011;54760;47.490;19.030;2024-01-30T04:47:52;14.75;;;9.05;;
67979;SDS011;54760;47.490;19.030;2024-01-30T04:50:18;16.52;;;9.18;;
67979;SDS011;54760;47.490;19.030;2024-01-30T04:52:44;18.05;;;9.02;;
67979;SDS011;54760;47.490;19.030;2024-01-30T04:55:09;17.05;;;8.95;;
67979;SDS011;54760;47.490;19.030;2024-01-30T04:57:34;13.55;;;8.95;;
67979;SDS011;54760;47.490;19.030;2024-01-30T05:00:00;15.07;;;8.57;;
67979;SDS011;54760;47.490;19.030;2024-01-30T05:02:25;16.10;;;8.90;;
67979;SDS011;54760;47.490;19.030;2024-01-30T05:04:52;17.75;;;9.25;;
67979;SDS011;54760;47.490;19.030;2024-01-30T05:07:17;14.48;;;8.80;;
67979;SDS011;54760;47.490;19.030;2024-01-30T05:09:43;15.55;;;9.18;;
67979;SDS011;54760;47.490;19.030;2024-01-30T05:12:08;16.20;;;8.23;;
67979;SDS011;54760;47.490;19.030;2024-01-30T05:14:34;17.20;;;9.40;;
67979;SDS011;54760;47.490;19.030;2024-01-30T05:16:59;17.95;;;9.35;;
67979;SDS011;54760;47.490;19.030;2024-01-30T05:19:25;20.05;;;9.02;;
67979;SDS011;54760;47.490;19.030;2024-01-30T05:21:50;18.02;;;10.02;;
67979;SDS011;54760;47.490;19.030;2024-01-30T05:24:15;17.08;;;9.52;;
67979;SDS011;54760;47.490;19.030;2024-01-30T05:26:41;18.23;;;9.50;;
67979;SDS011;54760;47.490;19.030;2024-01-30T05:29:06;15.70;;;9.02;;
67979;SDS011;54760;47.490;19.030;2024-01-30T05:31:32;16.25;;;9.65;;
67979;SDS011;54760;47.490;19.030;2024-01-30T05:33:59;19.02;;;10.05;;
67979;SDS011;54760;47.490;19.030;2024-01-30T05:36:24;20.50;;;10.68;;
67979;SDS011;54760;47.490;19.030;2024-01-30T05:38:50;18.15;;;10.07;;
67979;SDS011;54760;47.490;19.030;2024-01-30T05:41:15;18.60;;;10.07;;
67979;SDS011;54760;47.490;19.030;2024-01-30T05:43:41;18.87;;;10.13;;
67979;SDS011;54760;47.490;19.030;2024-01-30T05:46:07;21.05;;;10.90;;
67979;SDS011;54760;47.490;19.030;2024-01-30T05:48:32;19.45;;;9.93;;
67979;SDS011;54760;47.490;19.030;2024-01-30T05:50:58;18.52;;;10.13;;
67979;SDS011;54760;47.490;19.030;2024-01-30T05:53:24;17.92;;;10.98;;
67979;SDS011;54760;47.490;19.030;2024-01-30T05:55:50;17.67;;;10.68;;
67979;SDS011;54760;47.490;19.030;2024-01-30T05:58:15;20.35;;;10.98;;
67979;SDS011;54760;47.490;19.030;2024-01-30T06:00:41;19.80;;;10.88;;
67979;SDS011;54760;47.490;19.030;2024-01-30T06:03:07;20.73;;;10.32;;
67979;SDS011;54760;47.490;19.030;2024-01-30T06:05:32;18.45;;;10.65;;
67979;SDS011;54760;47.490;19.030;2024-01-30T06:07:58;19.50;;;11.10;;
67979;SDS011;54760;47.490;19.030;2024-01-30T06:10:23;20.62;;;11.43;;
67979;SDS011;54760;47.490;19.030;2024-01-30T06:12:48;19.48;;;11.68;;
67979;SDS011;54760;47.490;19.030;2024-01-30T06:15:14;22.45;;;11.27;;
67979;SDS011;54760;47.490;19.030;2024-01-30T06:17:39;20.08;;;11.30;;
67979;SDS011;54760;47.490;19.030;2024-01-30T06:20:05;19.83;;;11.40;;
67979;SDS011;54760;47.490;19.030;2024-01-30T06:22:33;21.65;;;11.60;;
67979;SDS011;54760;47.490;19.030;2024-01-30T06:24:58;22.15;;;12.63;;
67979;SDS011;54760;47.490;19.030;2024-01-30T06:27:24;27.77;;;14.68;;
67979;SDS011;54760;47.490;19.030;2024-01-30T06:29:49;28.62;;;14.65;;
67979;SDS011;54760;47.490;19.030;2024-01-30T06:32:15;27.55;;;15.45;;
67979;SDS011;54760;47.490;19.030;2024-01-30T06:34:40;25.23;;;14.10;;
67979;SDS011;54760;47.490;19.030;2024-01-30T06:37:06;32.70;;;17.73;;
67979;SDS011;54760;47.490;19.030;2024-01-30T06:39:31;31.12;;;15.48;;
67979;SDS011;54760;47.490;19.030;2024-01-30T06:41:57;30.77;;;16.15;;
67979;SDS011;54760;47.490;19.030;2024-01-30T06:44:22;29.50;;;15.77;;
67979;SDS011;54760;47.490;19.030;2024-01-30T06:46:47;30.40;;;16.62;;
67979;SDS011;54760;47.490;19.030;2024-01-30T06:49:13;30.73;;;15.57;;
67979;SDS011;54760;47.490;19.030;2024-01-30T06:51:38;28.05;;;15.65;;
67979;SDS011;54760;47.490;19.030;2024-01-30T06:54:04;30.02;;;16.67;;
67979;SDS011;54760;47.490;19.030;2024-01-30T06:56:29;29.63;;;16.30;;
67979;SDS011;54760;47.490;19.030;2024-01-30T06:58:55;29.58;;;14.85;;
67979;SDS011;54760;47.490;19.030;2024-01-30T07:01:20;23.60;;;13.10;;
67979;SDS011;54760;47.490;19.030;2024-01-30T07:03:52;21.73;;;12.37;;
67979;SDS011;54760;47.490;19.030;2024-01-30T07:06:18;23.05;;;12.93;;
67979;SDS011;54760;47.490;19.030;2024-01-30T07:08:43;26.65;;;13.60;;
67979;SDS011;54760;47.490;19.030;2024-01-30T07:11:08;28.15;;;14.63;;
67979;SDS011;54760;47.490;19.030;2024-01-30T07:13:34;25.77;;;13.95;;
67979;SDS011;54760;47.490;19.030;2024-01-30T07:16:00;33.45;;;14.70;;
67979;SDS011;54760;47.490;19.030;2024-01-30T07:18:25;27.65;;;13.90;;
67979;SDS011;54760;47.490;19.030;2024-01-30T07:20:51;34.85;;;14.70;;
67979;SDS011;54760;47.490;19.030;2024-01-30T07:23:16;40.28;;;14.98;;
67979;SDS011;54760;47.490;19.030;2024-01-30T07:25:45;27.58;;;14.15;;
67979;SDS011;54760;47.490;19.030;2024-01-30T07:28:13;29.98;;;15.85;;
67979;SDS011;54760;47.490;19.030;2024-01-30T07:30:41;26.27;;;14.73;;
67979;SDS011;54760;47.490;19.030;2024-01-30T07:33:07;39.63;;;15.57;;
67979;SDS011;54760;47.490;19.030;2024-01-30T07:35:33;34.40;;;14.93;;
67979;SDS011;54760;47.490;19.030;2024-01-30T07:37:59;43.33;;;15.68;;
67979;SDS011;54760;47.490;19.030;2024-01-30T07:40:24;31.67;;;14.48;;
67979;SDS011;54760;47.490;19.030;2024-01-30T07:42:50;27.00;;;14.87;;
67979;SDS011;54760;47.490;19.030;2024-01-30T07:45:15;25.25;;;14.38;;
67979;SDS011;54760;47.490;19.030;2024-01-30T07:47:41;30.88;;;15.50;;
67979;SDS011;54760;47.490;19.030;2024-01-30T07:50:07;29.17;;;16.85;;
67979;SDS011;54760;47.490;19.030;2024-01-30T07:52:33;33.83;;;17.85;;
67979;SDS011;54760;47.490;19.030;2024-01-30T07:54:58;36.50;;;17.75;;
67979;SDS011;54760;47.490;19.030;2024-01-30T07:58:02;36.80;;;17.95;;
67979;SDS011;54760;47.490;19.030;2024-01-30T08:00:28;33.47;;;17.50;;
67979;SDS011;54760;47.490;19.030;2024-01-30T08:02:54;36.33;;;18.35;;
67979;SDS011;54760;47.490;19.030;2024-01-30T08:05:20;33.13;;;17.90;;
67979;SDS011;54760;47.490;19.030;2024-01-30T08:07:47;32.75;;;19.17;;
67979;SDS011;54760;47.490;19.030;2024-01-30T08:10:13;38.22;;;19.37;;
67979;SDS011;54760;47.490;19.030;2024-01-30T08:12:39;33.90;;;18.45;;
67979;SDS011;54760;47.490;19.030;2024-01-30T08:15:05;32.40;;;18.67;;
67979;SDS011;54760;47.490;19.030;2024-01-30T08:17:31;34.40;;;18.75;;
67979;SDS011;54760;47.490;19.030;2024-01-30T08:19:56;28.70;;;17.92;;
67979;SDS011;54760;47.490;19.030;2024-01-30T08:22:22;34.83;;;18.30;;
67979;SDS011;54760;47.490;19.030;2024-01-30T08:24:47;34.45;;;18.83;;
67979;SDS011;54760;47.490;19.030;2024-01-30T08:27:13;34.72;;;18.80;;
67979;SDS011;54760;47.490;19.030;2024-01-30T08:29:38;29.70;;;18.40;;
67979;SDS011;54760;47.490;19.030;2024-01-30T08:32:04;34.60;;;19.60;;
67979;SDS011;54760;47.490;19.030;2024-01-30T08:34:30;39.67;;;19.80;;
67979;SDS011;54760;47.490;19.030;2024-01-30T08:36:56;36.35;;;20.83;;
67979;SDS011;54760;47.490;19.030;2024-01-30T08:39:21;36.83;;;19.48;;
67979;SDS011;54760;47.490;19.030;2024-01-30T08:41:46;32.50;;;20.12;;
67979;SDS011;54760;47.490;19.030;2024-01-30T08:44:12;30.48;;;18.65;;
67979;SDS011;54760;47.490;19.030;2024-01-30T08:46:37;31.98;;;19.05;;
67979;SDS011;54760;47.490;19.030;2024-01-30T08:49:03;36.63;;;19.25;;
67979;SDS011;54760;47.490;19.030;2024-01-30T08:51:31;37.75;;;19.42;;
67979;SDS011;54760;47.490;19.030;2024-01-30T08:53:56;35.63;;;18.67;;
67979;SDS011;54760;47.490;19.030;2024-01-30T08:56:22;28.90;;;18.52;;
67979;SDS011;54760;47.490;19.030;2024-01-30T08:58:47;35.55;;;18.50;;
67979;SDS011;54760;47.490;19.030;2024-01-30T09:01:13;32.72;;;18.92;;
67979;SDS011;54760;47.490;19.030;2024-01-30T09:03:39;32.25;;;19.10;;
67979;SDS011;54760;47.490;19.030;2024-01-30T09:06:09;28.62;;;17.05;;
67979;SDS011;54760;47.490;19.030;2024-01-30T09:08:35;29.27;;;17.40;;
67979;SDS011;54760;47.490;19.030;2024-01-30T09:11:00;28.23;;;16.73;;
67979;SDS011;54760;47.490;19.030;2024-01-30T09:13:26;29.87;;;17.65;;
67979;SDS011;54760;47.490;19.030;2024-01-30T09:15:51;35.70;;;17.90;;
67979;SDS011;54760;47.490;19.030;2024-01-30T09:18:17;28.98;;;17.77;;
67979;SDS011;54760;47.490;19.030;2024-01-30T09:20:43;26.20;;;17.45;;
67979;SDS011;54760;47.490;19.030;2024-01-30T09:23:12;25.45;;;17.08;;
67979;SDS011;54760;47.490;19.030;2024-01-30T09:25:37;25.45;;;16.50;;
67979;SDS011;54760;47.490;19.030;2024-01-30T09:28:03;29.65;;;15.90;;
67979;SDS011;54760;47.490;19.030;2024-01-30T09:30:29;28.77;;;16.37;;
67979;SDS011;54760;47.490;19.030;2024-01-30T09:32:54;26.90;;;16.33;;
67979;SDS011;54760;47.490;19.030;2024-01-30T09:35:19;33.67;;;17.20;;
67979;SDS011;54760;47.490;19.030;2024-01-30T09:37:45;27.85;;;16.35;;
67979;SDS011;54760;47.490;19.030;2024-01-30T09:40:10;29.25;;;17.70;;
67979;SDS011;54760;47.490;19.030;2024-01-30T09:42:36;27.27;;;17.10;;
67979;SDS011;54760;47.490;19.030;2024-01-30T09:45:02;25.23;;;16.50;;
67979;SDS011;54760;47.490;19.030;2024-01-30T09:47:31;27.70;;;16.20;;
67979;SDS011;54760;47.490;19.030;2024-01-30T09:49:57;27.15;;;17.08;;
67979;SDS011;54760;47.490;19.030;2024-01-30T09:52:23;27.83;;;17.12;;
67979;SDS011;54760;47.490;19.030;2024-01-30T09:54:49;30.37;;;17.00;;
67979;SDS011;54760;47.490;19.030;2024-01-30T09:57:16;23.77;;;15.55;;
67979;SDS011;54760;47.490;19.030;2024-01-30T09:59:41;32.38;;;17.45;;
67979;SDS011;54760;47.490;19.030;2024-01-30T10:02:08;30.98;;;17.73;;
67979;SDS011;54760;47.490;19.030;2024-01-30T10:04:34;31.90;;;16.20;;
67979;SDS011;54760;47.490;19.030;2024-01-30T10:07:00;29.50;;;17.73;;
67979;SDS011;54760;47.490;19.030;2024-01-30T10:09:27;28.12;;;16.65;;
67979;SDS011;54760;47.490;19.030;2024-01-30T10:11:52;24.42;;;14.70;;
67979;SDS011;54760;47.490;19.030;2024-01-30T10:14:18;27.17;;;14.90;;
67979;SDS011;54760;47.490;19.030;2024-01-30T10:16:45;22.52;;;13.65;;
67979;SDS011;54760;47.490;19.030;2024-01-30T10:19:11;22.62;;;14.00;;
67979;SDS011;54760;47.490;19.030;2024-01-30T10:21:37;23.73;;;14.85;;
67979;SDS011;54760;47.490;19.030;2024-01-30T10:24:02;29.17;;;14.18;;
67979;SDS011;54760;47.490;19.030;2024-01-30T10:26:28;22.33;;;13.93;;
67979;SDS011;54760;47.490;19.030;2024-01-30T10:28:54;20.17;;;13.07;;
67979;SDS011;54760;47.490;19.030;2024-01-30T10:31:20;23.45;;;13.27;;
67979;SDS011;54760;47.490;19.030;2024-01-30T10:33:45;25.95;;;13.05;;
67979;SDS011;54760;47.490;19.030;2024-01-30T10:36:11;25.02;;;14.27;;
67979;SDS011;54760;47.490;19.030;2024-01-30T10:38:40;21.90;;;12.77;;
67979;SDS011;54760;47.490;19.030;2024-01-30T10:41:07;24.40;;;12.98;;
67979;SDS011;54760;47.490;19.030;2024-01-30T10:43:40;24.35;;;14.43;;
67979;SDS011;54760;47.490;19.030;2024-01-30T10:46:17;24.80;;;14.38;;
67979;SDS011;54760;47.490;19.030;2024-01-30T10:48:44;24.73;;;14.82;;
67979;SDS011;54760;47.490;19.030;2024-01-30T10:51:18;25.35;;;16.00;;
67979;SDS011;54760;47.490;19.030;2024-01-30T10:53:45;24.87;;;14.90;;
67979;SDS011;54760;47.490;19.030;2024-01-30T10:56:11;26.17;;;15.15;;
67979;SDS011;54760;47.490;19.030;2024-01-30T10:58:38;30.05;;;16.77;;
67979;SDS011;54760;47.490;19.030;2024-01-30T11:01:04;27.85;;;16.15;;
67979;SDS011;54760;47.490;19.030;2024-01-30T11:03:31;28.00;;;16.17;;
67979;SDS011;54760;47.490;19.030;2024-01-30T11:05:59;30.98;;;16.00;;
67979;SDS011;54760;47.490;19.030;2024-01-30T11:08:25;30.00;;;17.23;;
67979;SDS011;54760;47.490;19.030;2024-01-30T11:10:57;26.70;;;16.20;;
67979;SDS011;54760;47.490;19.030;2024-01-30T11:13:30;30.48;;;15.95;;
67979;SDS011;54760;47.490;19.030;2024-01-30T11:15:59;25.90;;;13.50;;
67979;SDS011;54760;47.490;19.030;2024-01-30T11:18:36;22.35;;;13.50;;
67979;SDS011;54760;47.490;19.030;2024-01-30T11:21:04;20.67;;;13.25;;
67979;SDS011;54760;47.490;19.030;2024-01-30T11:23:30;22.75;;;13.25;;
67979;SDS011;54760;47.490;19.030;2024-01-30T11:25:56;23.00;;;13.00;;
67979;SDS011;54760;47.490;19.030;2024-01-30T11:28:22;19.25;;;12.23;;
67979;SDS011;54760;47.490;19.030;2024-01-30T11:30:48;21.77;;;12.80;;
67979;SDS011;54760;47.490;19.030;2024-01-30T11:33:27;19.90;;;12.95;;
67979;SDS011;54760;47.490;19.030;2024-01-30T11:35:59;23.02;;;12.23;;
67979;SDS011;54760;47.490;19.030;2024-01-30T11:38:25;19.45;;;11.80;;
67979;SDS011;54760;47.490;19.030;2024-01-30T11:40:55;18.50;;;11.68;;
67979;SDS011;54760;47.490;19.030;2024-01-30T11:43:23;17.75;;;11.18;;
67979;SDS011;54760;47.490;19.030;2024-01-30T11:45:49;20.85;;;12.60;;
67979;SDS011;54760;47.490;19.030;2024-01-30T11:48:16;24.45;;;13.57;;
67979;SDS011;54760;47.490;19.030;2024-01-30T11:50:41;19.37;;;10.70;;
67979;SDS011;54760;47.490;19.030;2024-01-30T11:53:07;17.58;;;11.40;;
67979;SDS011;54760;47.490;19.030;2024-01-30T11:55:33;19.83;;;12.32;;
67979;SDS011;54760;47.490;19.030;2024-01-30T11:58:00;18.33;;;11.40;;
67979;SDS011;54760;47.490;19.030;2024-01-30T12:00:26;17.55;;;10.98;;
67979;SDS011;54760;47.490;19.030;2024-01-30T12:02:52;20.10;;;10.50;;
67979;SDS011;54760;47.490;19.030;2024-01-30T12:05:26;17.98;;;10.55;;
67979;SDS011;54760;47.490;19.030;2024-01-30T12:07:53;19.27;;;10.77;;
67979;SDS011;54760;47.490;19.030;2024-01-30T12:10:18;18.33;;;10.32;;
67979;SDS011;54760;47.490;19.030;2024-01-30T12:12:45;13.88;;;9.40;;
67979;SDS011;54760;47.490;19.030;2024-01-30T12:15:12;15.75;;;9.90;;
67979;SDS011;54760;47.490;19.030;2024-01-30T12:17:39;12.98;;;8.25;;
67979;SDS011;54760;47.490;19.030;2024-01-30T12:20:08;11.95;;;7.95;;
67979;SDS011;54760;47.490;19.030;2024-01-30T12:22:41;12.32;;;7.90;;
67979;SDS011;54760;47.490;19.030;2024-01-30T12:25:14;13.45;;;8.13;;
67979;SDS011;54760;47.490;19.030;2024-01-30T12:27:45;10.98;;;7.40;;
67979;SDS011;54760;47.490;19.030;2024-01-30T12:30:15;12.85;;;8.13;;
67979;SDS011;54760;47.490;19.030;2024-01-30T12:32:44;15.52;;;8.70;;
67979;SDS011;54760;47.490;19.030;2024-01-30T12:35:14;13.65;;;8.50;;
67979;SDS011;54760;47.490;19.030;2024-01-30T12:37:41;17.75;;;9.55;;
67979;SDS011;54760;47.490;19.030;2024-01-30T12:40:08;14.32;;;8.55;;
67979;SDS011;54760;47.490;19.030;2024-01-30T12:42:35;14.40;;;8.52;;
67979;SDS011;54760;47.490;19.030;2024-01-30T12:45:04;11.63;;;7.68;;
67979;SDS011;54760;47.490;19.030;2024-01-30T12:47:30;11.10;;;7.28;;
67979;SDS011;54760;47.490;19.030;2024-01-30T12:49:55;12.63;;;6.28;;
67979;SDS011;54760;47.490;19.030;2024-01-30T12:52:21;9.35;;;6.10;;
67979;SDS011;54760;47.490;19.030;2024-01-30T12:54:47;11.80;;;6.70;;
67979;SDS011;54760;47.490;19.030;2024-01-30T12:57:17;10.27;;;6.45;;
67979;SDS011;54760;47.490;19.030;2024-01-30T12:59:43;10.93;;;5.80;;
67979;SDS011;54760;47.490;19.030;2024-01-30T13:02:09;12.00;;;6.32;;
67979;SDS011;54760;47.490;19.030;2024-01-30T13:04:35;11.32;;;6.37;;
67979;SDS011;54760;47.490;19.030;2024-01-30T13:07:01;9.63;;;6.22;;
67979;SDS011;54760;47.490;19.030;2024-01-30T13:09:27;10.93;;;5.87;;
67979;SDS011;54760;47.490;19.030;2024-01-30T13:11:54;9.90;;;6.18;;
67979;SDS011;54760;47.490;19.030;2024-01-30T13:14:19;8.70;;;5.95;;
67979;SDS011;54760;47.490;19.030;2024-01-30T13:16:45;11.00;;;6.10;;
67979;SDS011;54760;47.490;19.030;2024-01-30T13:19:10;13.40;;;6.47;;
67979;SDS011;54760;47.490;19.030;2024-01-30T13:21:36;13.40;;;6.40;;
67979;SDS011;54760;47.490;19.030;2024-01-30T13:24:01;9.82;;;6.50;;
67979;SDS011;54760;47.490;19.030;2024-01-30T13:26:27;10.30;;;6.00;;
67979;SDS011;54760;47.490;19.030;2024-01-30T13:28:53;9.32;;;6.30;;
67979;SDS011;54760;47.490;19.030;2024-01-30T13:31:18;9.20;;;6.18;;
67979;SDS011;54760;47.490;19.030;2024-01-30T13:33:44;9.77;;;6.45;;
67979;SDS011;54760;47.490;19.030;2024-01-30T13:36:10;10.20;;;6.30;;
67979;SDS011;54760;47.490;19.030;2024-01-30T13:38:37;10.82;;;6.50;;
67979;SDS011;54760;47.490;19.030;2024-01-30T13:41:04;11.45;;;6.97;;
67979;SDS011;54760;47.490;19.030;2024-01-30T13:43:29;10.30;;;6.90;;
67979;SDS011;54760;47.490;19.030;2024-01-30T13:45:55;12.98;;;7.03;;
67979;SDS011;54760;47.490;19.030;2024-01-30T13:48:20;16.00;;;7.53;;
67979;SDS011;54760;47.490;19.030;2024-01-30T13:50:46;12.73;;;6.65;;
67979;SDS011;54760;47.490;19.030;2024-01-30T13:53:12;10.40;;;7.43;;
67979;SDS011;54760;47.490;19.030;2024-01-30T13:55:38;11.82;;;7.00;;
67979;SDS011;54760;47.490;19.030;2024-01-30T13:58:04;11.05;;;7.35;;
67979;SDS011;54760;47.490;19.030;2024-01-30T14:00:30;14.52;;;7.00;;
67979;SDS011;54760;47.490;19.030;2024-01-30T14:02:55;12.18;;;7.40;;
67979;SDS011;54760;47.490;19.030;2024-01-30T14:05:23;11.55;;;7.50;;
67979;SDS011;54760;47.490;19.030;2024-01-30T14:07:48;9.48;;;6.90;;
67979;SDS011;54760;47.490;19.030;2024-01-30T14:10:15;12.30;;;7.55;;